Time;durP1;ratioP1;P1;durP2;ratioP2;P2;SDS_P1;SDS_P2;PMS_P1;PMS_P2;Temp;Humidity;BMP_temperature;BMP_pressure;BME280_temperature;BME280_humidity;BME280_pressure;Samples;Min_cycle;Max_cycle;Signal;HPM_P1;HPM_P2
2023/07/11 00:01:41;;;;;;;4.10;0.90;;;;;;;-142.75;100.00;76278.97;4990531;28;20021;-64
2023/07/11 00:04:06;;;;;;;3.55;1.00;;;;;;;-142.75;100.00;76271.09;5006092;28;20057;-64
2023/07/11 00:06:32;;;;;;;2.83;1.17;;;;;;;-142.75;100.00;76261.25;5006027;28;20081;-65
2023/07/11 00:08:58;;;;;;;4.07;1.17;;;;;;;-142.75;100.00;76259.28;5005462;28;20512;-65
2023/07/11 00:11:24;;;;;;;4.30;1.27;;;;;;;-142.75;100.00;76259.28;5006434;28;20022;-65
2023/07/11 00:13:50;;;;;;;5.25;1.90;;;;;;;-142.75;100.00;76263.22;5006404;28;20051;-64
2023/07/11 00:16:17;;;;;;;2.50;0.80;;;;;;;-142.75;100.00;76259.28;5005967;28;20041;-64
2023/07/11 00:18:44;;;;;;;4.15;1.42;;;;;;;-142.75;100.00;76251.41;4984743;28;20026;-62
2023/07/11 00:21:10;;;;;;;2.08;1.02;;;;;;;-142.75;100.00;76255.34;4986513;28;20440;-64
2023/07/11 00:23:35;;;;;;;3.38;0.95;;;;;;;-142.75;100.00;76247.47;4986200;28;20113;-64
2023/07/11 00:26:01;;;;;;;3.83;1.10;;;;;;;-142.75;100.00;76245.50;4986559;28;20918;-64
2023/07/11 00:28:26;;;;;;;4.63;1.10;;;;;;;-142.75;100.00;76243.53;4985854;28;20401;-65
2023/07/11 00:30:52;;;;;;;3.75;1.05;;;;;;;-142.75;100.00;76251.41;4997145;28;20030;-64
2023/07/11 00:33:18;;;;;;;4.60;1.23;;;;;;;-142.75;100.00;76267.16;4985820;28;20076;-64
2023/07/11 00:35:45;;;;;;;2.33;0.85;;;;;;;-142.75;100.00;76257.31;4985976;28;20034;-63
2023/07/11 00:38:12;;;;;;;4.28;1.55;;;;;;;-142.75;100.00;76245.50;4985841;28;20038;-65
2023/07/11 00:40:46;;;;;;;5.85;1.30;;;;;;;-142.75;100.00;76233.69;4994828;28;20021;-64
2023/07/11 00:43:15;;;;;;;3.72;0.98;;;;;;;-142.75;100.00;76225.81;5006578;28;20084;-64
2023/07/11 00:45:49;;;;;;;3.05;1.38;;;;;;;-142.75;100.00;76215.97;5005502;28;20782;-64
2023/07/11 00:48:19;;;;;;;3.15;1.27;;;;;;;-142.75;100.00;76196.31;4991239;28;20045;-64
2023/07/11 00:50:44;;;;;;;4.05;1.33;;;;;;;-142.75;100.00;76192.38;4985759;28;20138;-64
2023/07/11 00:53:11;;;;;;;2.50;1.00;;;;;;;-142.75;100.00;76202.19;4986033;28;20121;-63
2023/07/11 00:55:37;;;;;;;5.38;1.45;;;;;;;-142.75;100.00;76217.94;4985421;28;20034;-63
2023/07/11 00:58:03;;;;;;;6.18;1.48;;;;;;;-142.75;100.00;76196.31;4985706;28;20117;-64
2023/07/11 01:00:29;;;;;;;2.70;1.50;;;;;;;-142.75;100.00;76176.63;4985458;28;20029;-63
2023/07/11 01:02:54;;;;;;;4.35;1.25;;;;;;;-142.75;100.00;76178.59;4995082;28;20026;-64
2023/07/11 01:05:20;;;;;;;4.85;1.95;;;;;;;-142.75;100.00;76172.69;5005082;28;20598;-64
2023/07/11 01:07:45;;;;;;;10.93;2.10;;;;;;;-142.75;100.00;76172.69;5001952;28;20033;-64
2023/07/11 01:10:10;;;;;;;5.05;1.73;;;;;;;-142.75;100.00;76166.78;4985313;28;20014;-64
2023/07/11 01:12:36;;;;;;;5.30;1.70;;;;;;;-142.75;100.00;76176.63;4985654;28;20030;-66
2023/07/11 01:15:03;;;;;;;3.55;1.50;;;;;;;-142.75;100.00;76168.75;4985558;28;20106;-64
2023/07/11 01:17:33;;;;;;;3.95;1.98;;;;;;;-142.75;100.00;76162.84;4985436;28;20030;-65
2023/07/11 01:20:03;;;;;;;3.28;1.60;;;;;;;-142.75;100.00;76160.88;4985033;28;20077;-65
2023/07/11 01:22:30;;;;;;;2.97;1.95;;;;;;;-142.75;100.00;76145.13;4985376;28;20030;-64
2023/07/11 01:25:00;;;;;;;6.75;2.20;;;;;;;-142.75;100.00;76145.13;4985357;28;20393;-65
2023/07/11 01:27:26;;;;;;;7.47;2.28;;;;;;;-142.75;100.00;76156.94;4985403;28;20054;-64
2023/07/11 01:29:52;;;;;;;4.68;1.80;;;;;;;-142.75;100.00;76156.94;4985034;28;20062;-64
2023/07/11 01:32:19;;;;;;;5.03;2.13;;;;;;;-142.75;100.00;76147.09;4985465;28;20022;-64
2023/07/11 01:34:44;;;;;;;6.20;2.22;;;;;;;-142.75;100.00;76154.97;4985512;28;21744;-63
2023/07/11 01:37:10;;;;;;;7.05;2.47;;;;;;;-142.75;100.00;76156.94;5000779;28;20030;-64
2023/07/11 01:39:36;;;;;;;6.38;2.30;;;;;;;-142.75;100.00;76168.75;5004417;28;20140;-64
2023/07/11 01:42:01;;;;;;;6.07;2.55;;;;;;;-142.75;100.00;76166.78;4988572;28;20492;-63
2023/07/11 01:44:27;;;;;;;6.13;2.38;;;;;;;-142.75;100.00;76162.84;4985326;28;20022;-63
2023/07/11 01:46:52;;;;;;;5.90;2.67;;;;;;;-142.75;100.00;76162.84;4985139;28;20560;-63
2023/07/11 01:49:17;;;;;;;5.38;2.33;;;;;;;-142.75;100.00;76166.78;4984814;28;20117;-63
2023/07/11 01:51:44;;;;;;;4.07;2.30;;;;;;;-142.75;100.00;76170.72;4985213;28;20067;-64
2023/07/11 01:54:10;;;;;;;6.45;2.40;;;;;;;-142.75;100.00;76184.50;4985335;28;20037;-64
2023/07/11 01:56:36;;;;;;;4.68;2.00;;;;;;;-142.75;100.00;76176.63;4985102;28;20027;-64
2023/07/11 01:59:02;;;;;;;9.10;2.25;;;;;;;-142.75;100.00;76192.38;4988715;28;20120;-63
2023/07/11 02:01:27;;;;;;;5.65;2.60;;;;;;;-142.75;100.00;76202.19;4992092;28;20125;-64
2023/07/11 02:03:52;;;;;;;8.85;2.70;;;;;;;-142.75;100.00;76192.38;4984803;28;20082;-64
2023/07/11 02:06:18;;;;;;;4.40;2.75;;;;;;;-142.75;100.00;76190.41;4985049;28;20073;-64
2023/07/11 02:08:43;;;;;;;5.80;2.95;;;;;;;-142.75;100.00;76206.13;4993584;28;20036;-61
2023/07/11 02:11:08;;;;;;;5.20;3.00;;;;;;;-142.75;100.00;76202.19;5004768;28;21982;-63
2023/07/11 02:13:34;;;;;;;7.40;2.83;;;;;;;-142.75;100.00;76208.09;5005408;28;20548;-63
2023/07/11 02:15:59;;;;;;;3.85;2.28;;;;;;;-142.75;100.00;76212.03;5004517;28;20584;-64
2023/07/11 02:18:24;;;;;;;5.28;2.53;;;;;;;-142.75;100.00;76215.97;5004029;28;20446;-63
2023/07/11 02:20:50;;;;;;;5.97;2.78;;;;;;;-142.75;100.00;76217.94;5004156;28;20025;-64
2023/07/11 02:23:16;;;;;;;5.47;2.88;;;;;;;-142.75;100.00;76223.84;5005001;28;20032;-64
2023/07/11 02:25:41;;;;;;;6.00;3.00;;;;;;;-142.75;100.00;76223.84;5007901;28;20116;-64
2023/07/11 02:28:07;;;;;;;5.32;3.33;;;;;;;-142.75;100.00;76219.91;5007743;28;20049;-63
2023/07/11 02:30:33;;;;;;;7.07;3.00;;;;;;;-142.75;100.00;76235.66;5007677;28;20033;-63
2023/07/11 02:32:59;;;;;;;9.88;3.58;;;;;;;-142.75;100.00;76243.53;5007655;28;20033;-63
2023/07/11 02:35:24;;;;;;;6.57;3.10;;;;;;;-142.75;100.00;76231.72;5007161;28;20061;-63
2023/07/11 02:37:50;;;;;;;7.50;3.70;;;;;;;-142.75;100.00;76243.53;5006932;28;20013;-63
2023/07/11 02:40:16;;;;;;;6.22;3.30;;;;;;;-142.75;100.00;76247.47;5007325;28;20113;-63
2023/07/11 02:42:41;;;;;;;7.78;3.00;;;;;;;-142.75;100.00;76243.53;5008770;28;20065;-64
2023/07/11 02:45:07;;;;;;;6.75;2.60;;;;;;;-142.75;100.00;76243.53;5007675;28;20029;-63
2023/07/11 02:47:33;;;;;;;6.07;3.22;;;;;;;-142.75;100.00;76251.41;5007499;28;20045;-63
2023/07/11 02:49:58;;;;;;;9.25;3.45;;;;;;;-142.75;100.00;76249.44;5007365;28;20031;-64
2023/07/11 02:52:23;;;;;;;5.68;2.50;;;;;;;-142.75;100.00;76255.34;5007355;28;20029;-64
2023/07/11 02:54:49;;;;;;;8.13;2.80;;;;;;;-142.75;100.00;76265.19;5007342;28;20109;-63
2023/07/11 02:57:14;;;;;;;6.88;3.40;;;;;;;-142.75;100.00;76255.34;5007311;28;20112;-64
2023/07/11 02:59:39;;;;;;;8.95;2.92;;;;;;;-142.75;100.00;76265.19;5007018;28;20022;-64
2023/07/11 03:02:05;;;;;;;5.15;2.83;;;;;;;-142.75;100.00;76253.38;5007199;28;20046;-63
2023/07/11 03:04:31;;;;;;;6.07;2.80;;;;;;;-142.75;100.00;76251.41;5006995;28;20412;-64
2023/07/11 03:06:57;;;;;;;5.22;2.88;;;;;;;-142.75;100.00;76255.34;5006966;28;20523;-63
2023/07/11 03:09:24;;;;;;;6.43;2.70;;;;;;;-142.75;100.00;76267.16;5006737;28;20053;-63
2023/07/11 03:11:50;;;;;;;5.45;2.67;;;;;;;-142.75;100.00;76261.25;5007323;28;20037;-64
2023/07/11 03:14:15;;;;;;;6.90;2.75;;;;;;;-142.75;100.00;76265.19;4996252;28;20084;-63
2023/07/11 03:16:42;;;;;;;7.63;2.50;;;;;;;-142.75;100.00;76277.00;4987739;28;20030;-63
2023/07/11 03:19:08;;;;;;;7.57;2.63;;;;;;;-142.75;100.00;76259.28;4986346;28;20513;-64
2023/07/11 03:21:33;;;;;;;6.00;2.80;;;;;;;-142.75;100.00;76259.28;4986911;28;20034;-63
2023/07/11 03:23:58;;;;;;;5.47;2.80;;;;;;;-142.75;100.00;76265.19;4987429;28;20057;-63
2023/07/11 03:26:24;;;;;;;7.38;2.80;;;;;;;-142.75;100.00;76259.28;4987341;28;20084;-63
2023/07/11 03:28:49;;;;;;;7.05;2.70;;;;;;;-142.75;100.00;76245.50;4987056;28;20022;-64
2023/07/11 03:31:16;;;;;;;4.32;2.72;;;;;;;-142.75;100.00;76247.47;4987225;28;20489;-63
2023/07/11 03:33:42;;;;;;;5.13;2.70;;;;;;;-142.75;100.00;76245.50;4987292;28;20489;-64
2023/07/11 03:36:07;;;;;;;5.65;3.40;;;;;;;-142.75;100.00;76253.38;4985942;28;20096;-64
2023/07/11 03:38:32;;;;;;;6.03;3.17;;;;;;;-142.75;100.00;76255.34;4986667;28;20280;-64
2023/07/11 03:40:58;;;;;;;7.18;3.35;;;;;;;-142.75;100.00;76251.41;4987160;28;20026;-64
2023/07/11 03:43:23;;;;;;;5.10;2.80;;;;;;;-142.75;100.00;76249.44;4988080;28;20454;-63
2023/07/11 03:45:49;;;;;;;6.03;2.88;;;;;;;-142.75;100.00;76265.19;4986885;28;20037;-63
2023/07/11 03:48:14;;;;;;;6.40;2.63;;;;;;;-142.75;100.00;76263.22;4986574;28;20093;-59
2023/07/11 03:50:40;;;;;;;5.18;2.65;;;;;;;-142.75;100.00;76251.41;4986907;28;20018;-63
2023/07/11 03:53:06;;;;;;;5.15;2.42;;;;;;;-142.75;100.00;76251.41;4986949;28;20022;-63
2023/07/11 03:55:31;;;;;;;6.47;2.60;;;;;;;-142.75;100.00;76243.53;4986737;28;20109;-64
2023/07/11 03:57:57;;;;;;;6.07;2.63;;;;;;;-142.75;100.00;76247.47;4986785;28;20030;-63
2023/07/11 04:00:22;;;;;;;5.57;2.40;;;;;;;-142.75;100.00;76255.34;4994849;28;20101;-63
2023/07/11 04:02:47;;;;;;;7.05;2.70;;;;;;;-142.75;100.00;76255.34;4985324;28;20042;-63
2023/07/11 04:05:13;;;;;;;7.00;2.47;;;;;;;-142.75;100.00;76245.50;4986754;28;20034;-62
2023/07/11 04:07:38;;;;;;;5.00;2.58;;;;;;;-142.75;100.00;76249.44;4986670;28;20433;-62
2023/07/11 04:10:07;;;;;;;5.65;2.42;;;;;;;-142.75;100.00;76247.47;4986342;28;20030;-63
2023/07/11 04:12:32;;;;;;;5.82;2.22;;;;;;;-142.75;100.00;76247.47;4987610;28;20409;-63
2023/07/11 04:14:58;;;;;;;5.00;2.35;;;;;;;-142.75;100.00;76251.41;4987918;28;20059;-63
2023/07/11 04:17:23;;;;;;;6.63;2.50;;;;;;;-142.75;100.00;76239.59;5000983;28;20096;-63
2023/07/11 04:19:49;;;;;;;4.70;2.42;;;;;;;-142.75;100.00;76239.59;5005238;28;20066;-64
2023/07/11 04:22:15;;;;;;;8.65;2.60;;;;;;;-142.75;100.00;76233.69;5005477;28;20026;-64
2023/07/11 04:24:40;;;;;;;4.57;2.30;;;;;;;-142.75;100.00;76239.59;4999007;28;20504;-64
2023/07/11 04:27:05;;;;;;;5.43;2.50;;;;;;;-142.75;100.00;76239.59;4998375;28;20028;-63
2023/07/11 04:29:31;;;;;;;4.47;2.60;;;;;;;-142.75;100.00;76225.81;4992844;28;20030;-63
2023/07/11 04:31:56;;;;;;;7.50;2.65;;;;;;;-142.75;100.00;76225.81;5000933;28;20034;-64
2023/07/11 04:34:21;;;;;;;4.32;2.40;;;;;;;-142.75;100.00;76227.78;4997674;28;20022;-63
2023/07/11 04:36:47;;;;;;;7.22;2.33;;;;;;;-142.75;100.00;76215.97;4997141;28;20547;-63
2023/07/11 04:39:13;;;;;;;8.57;2.75;;;;;;;-142.75;100.00;76190.41;5005336;28;20112;-63
2023/07/11 04:41:38;;;;;;;4.25;2.33;;;;;;;-142.75;100.00;76184.50;4993362;28;20468;-64
2023/07/11 04:44:04;;;;;;;5.53;2.03;;;;;;;-142.75;100.00;76168.75;5001289;28;20463;-64
2023/07/11 04:46:29;;;;;;;6.93;2.47;;;;;;;-142.75;100.00;76168.75;4984461;28;20036;-63
2023/07/11 04:48:55;;;;;;;5.93;2.22;;;;;;;-142.75;100.00;76166.78;4999190;28;20057;-63
2023/07/11 04:51:20;;;;;;;3.97;1.88;;;;;;;-142.75;100.00;76168.75;4988544;28;20034;-64
2023/07/11 04:53:45;;;;;;;5.95;2.00;;;;;;;-142.75;100.00;76160.88;4989866;28;20018;-63
2023/07/11 04:56:11;;;;;;;5.25;2.22;;;;;;;-142.75;100.00;76145.13;4986018;28;20069;-63
2023/07/11 04:58:37;;;;;;;4.72;2.78;;;;;;;-142.75;100.00;76141.19;5000229;28;20029;-63
2023/07/11 05:01:08;;;;;;;5.75;1.95;;;;;;;-142.75;100.00;76139.22;4993967;28;20049;-63
2023/07/11 05:03:33;;;;;;;5.75;2.63;;;;;;;-142.75;100.00;76143.16;4985482;28;20211;-63
2023/07/11 05:05:59;;;;;;;7.35;3.33;;;;;;;-142.75;100.00;76135.28;4985224;28;20049;-64
2023/07/11 05:08:25;;;;;;;6.68;2.55;;;;;;;-142.75;100.00;76133.31;4985037;28;20034;-63
2023/07/11 05:11:17;;;;;;;8.98;2.53;;;;;;;-142.75;100.00;76119.53;4984547;28;20453;-63
2023/07/11 05:13:45;;;;;;;7.80;3.10;;;;;;;-142.75;100.00;76101.81;4981170;28;20425;-62
2023/07/11 05:16:13;;;;;;;6.30;3.17;;;;;;;-142.75;100.00;76090.00;4985230;28;20034;-63
2023/07/11 05:18:40;;;;;;;9.60;3.60;;;;;;;-142.75;100.00;76093.94;4986642;28;20494;-63
2023/07/11 05:21:10;;;;;;;7.78;3.15;;;;;;;-142.75;100.00;76086.06;5003907;28;20087;-64
2023/07/11 05:23:37;;;;;;;8.63;3.22;;;;;;;-142.75;100.00;76072.31;5004211;28;20026;-63
2023/07/11 05:26:02;;;;;;;6.10;3.35;;;;;;;-142.75;100.00;76062.47;5004379;28;20029;-63
2023/07/11 05:28:29;;;;;;;5.38;3.17;;;;;;;-142.75;100.00;76048.69;5003853;28;20558;-63
2023/07/11 05:30:55;;;;;;;9.25;3.95;;;;;;;-142.75;100.00;76040.81;5004267;28;20424;-63
2023/07/11 05:33:21;;;;;;;8.13;3.83;;;;;;;-142.75;100.00;76005.38;5003661;28;20428;-62
2023/07/11 05:35:57;;;;;;;8.90;4.05;;;;;;;-142.75;100.00;75995.53;5003417;28;20025;-63
2023/07/11 05:38:24;;;;;;;5.60;3.55;;;;;;;-142.75;100.00;75977.81;5003195;28;20053;-63
2023/07/11 05:40:49;;;;;;;7.38;3.90;;;;;;;-142.75;100.00;75967.97;5003372;28;20026;-63
2023/07/11 05:43:15;;;;;;;12.52;3.83;;;;;;;-142.75;100.00;75971.91;5004356;28;20056;-63
2023/07/11 05:45:43;;;;;;;5.78;3.35;;;;;;;-142.75;100.00;75960.13;4991456;28;20027;-63
2023/07/11 05:48:09;;;;;;;5.13;2.83;;;;;;;-142.75;100.00;75948.31;4996489;28;20045;-64
2023/07/11 05:50:34;;;;;;;8.35;3.22;;;;;;;-142.75;100.00;75932.56;4990829;28;20023;-63
2023/07/11 05:52:59;;;;;;;8.55;3.03;;;;;;;-142.75;100.00;75910.91;4983675;28;20542;-63
2023/07/11 05:55:26;;;;;;;6.85;2.63;;;;;;;-142.75;100.00;75912.88;4983186;28;20090;-64
2023/07/11 05:57:51;;;;;;;4.75;2.20;;;;;;;-142.75;100.00;75897.13;4983502;28;20065;-63
2023/07/11 06:00:17;;;;;;;7.75;2.30;;;;;;;-142.75;100.00;75885.31;4988372;28;20066;-64
2023/07/11 06:02:42;;;;;;;8.27;2.80;;;;;;;-142.75;100.00;75885.31;4993698;28;20120;-64
2023/07/11 06:05:08;;;;;;;5.68;2.10;;;;;;;-142.75;100.00;75857.78;4987165;28;20034;-63
2023/07/11 06:07:34;;;;;;;5.68;2.70;;;;;;;-142.75;100.00;75844.00;4995269;28;20036;-63
2023/07/11 06:09:59;;;;;;;5.38;2.38;;;;;;;-142.75;100.00;75845.97;4987033;28;20040;-64
2023/07/11 06:12:25;;;;;;;6.10;2.05;;;;;;;-142.75;100.00;75824.31;4999135;28;20045;-64
2023/07/11 06:14:50;;;;;;;7.00;2.45;;;;;;;-142.75;100.00;75798.72;4987785;28;20061;-63
2023/07/11 06:17:16;;;;;;;6.07;2.08;;;;;;;-142.75;100.00;75790.84;4986505;28;20037;-65
2023/07/11 06:19:41;;;;;;;4.18;2.20;;;;;;;-142.75;100.00;75790.84;4986016;28;20034;-63
2023/07/11 06:22:07;;;;;;;3.60;2.05;;;;;;;-142.75;100.00;75763.28;4990458;28;20033;-64
2023/07/11 06:24:32;;;;;;;8.20;2.72;;;;;;;-142.75;100.00;75763.28;4993290;28;20072;-63
2023/07/11 06:26:59;;;;;;;8.05;2.08;;;;;;;-142.75;100.00;75743.63;4985890;28;20019;-63
2023/07/11 06:29:25;;;;;;;5.80;2.13;;;;;;;-142.75;100.00;75727.88;4986885;28;20032;-64
2023/07/11 06:31:51;;;;;;;4.78;2.03;;;;;;;-142.75;100.00;75716.06;4987094;28;20089;-65
2023/07/11 06:34:16;;;;;;;5.78;2.10;;;;;;;-142.75;100.00;75708.19;4985600;28;20039;-64
2023/07/11 06:36:42;;;;;;;7.10;2.33;;;;;;;-142.75;100.00;75702.28;4994189;28;20113;-63
2023/07/11 06:39:07;;;;;;;7.45;2.45;;;;;;;-142.75;100.00;75704.25;4988616;28;20037;-64
2023/07/11 06:41:33;;;;;;;6.25;2.42;;;;;;;-142.75;100.00;75676.69;4992942;28;20026;-64
2023/07/11 06:43:58;;;;;;;4.82;2.60;;;;;;;-142.75;100.00;75660.97;4989253;28;20034;-64
2023/07/11 06:46:23;;;;;;;11.70;2.58;;;;;;;-142.75;100.00;75653.09;4981647;28;20085;-63
2023/07/11 06:48:49;;;;;;;5.47;2.15;;;;;;;-142.75;100.00;75651.13;4989210;28;20494;-63
2023/07/11 06:51:14;;;;;;;9.43;2.83;;;;;;;-142.75;100.00;75637.34;4992087;28;20018;-65
2023/07/11 06:53:39;;;;;;;7.13;2.58;;;;;;;-142.75;100.00;75641.28;4987836;28;20030;-63
2023/07/11 06:56:05;;;;;;;7.93;2.40;;;;;;;-142.75;100.00;75601.91;4993356;28;20771;-63
2023/07/11 06:58:31;;;;;;;7.03;2.45;;;;;;;-142.75;100.00;75574.38;4990119;28;20029;-62
2023/07/11 07:01:01;;;;;;;7.45;2.33;;;;;;;-142.75;100.00;75558.63;4984370;28;20442;-62
2023/07/11 07:03:27;;;;;;;8.38;2.40;;;;;;;-142.75;100.00;75542.88;4984815;28;20018;-63
2023/07/11 07:05:58;;;;;;;5.10;1.92;;;;;;;-142.75;100.00;75507.47;4986244;28;20046;-63
2023/07/11 07:08:24;;;;;;;7.50;2.00;;;;;;;-142.75;100.00;75479.91;4989329;28;20574;-63
2023/07/11 07:10:50;;;;;;;10.15;2.15;;;;;;;-142.75;100.00;75505.50;4983587;28;20030;-63
2023/07/11 07:13:17;;;;;;;5.45;1.75;;;;;;;-142.75;100.00;75479.91;4986478;28;20054;-65
2023/07/11 07:15:48;;;;;;;6.88;2.10;;;;;;;-142.75;100.00;75468.09;4986315;28;20036;-64
2023/07/11 07:18:13;;;;;;;8.13;2.10;;;;;;;-142.75;100.00;75440.53;4990314;28;20061;-63
2023/07/11 07:20:39;;;;;;;4.57;1.77;;;;;;;-142.75;100.00;75436.59;4993064;28;20114;-64
2023/07/11 07:23:05;;;;;;;4.63;2.33;;;;;;;-142.75;100.00;75416.94;4997196;28;20141;-61
2023/07/11 07:25:31;;;;;;;13.85;2.33;;;;;;;-142.75;100.00;75414.97;5006045;28;20125;-63
2023/07/11 07:27:57;;;;;;;5.93;2.38;;;;;;;-142.75;100.00;75385.44;4986503;28;20457;-63
2023/07/11 07:30:23;;;;;;;6.78;1.92;;;;;;;-142.75;100.00;75411.03;4986221;28;20065;-63
2023/07/11 07:32:48;;;;;;;7.07;2.08;;;;;;;-142.75;100.00;75393.31;4988218;28;20058;-62
2023/07/11 07:35:14;;;;;;;6.32;1.65;;;;;;;-142.75;100.00;75389.38;4995094;28;20021;-63
2023/07/11 07:37:39;;;;;;;6.47;1.85;;;;;;;-142.75;100.00;75409.06;5005638;28;20055;-63
2023/07/11 07:40:06;;;;;;;7.13;1.50;;;;;;;-142.75;100.00;75369.69;5007677;28;20030;-63
2023/07/11 07:42:31;;;;;;;10.18;1.63;;;;;;;-142.75;100.00;75306.72;5008440;28;20025;-63
2023/07/11 07:44:57;;;;;;;4.25;1.63;;;;;;;-142.75;100.00;75292.97;5008651;28;20607;-63
2023/07/11 07:47:22;;;;;;;6.85;1.70;;;;;;;-142.75;100.00;75281.16;5008413;28;20033;-63
2023/07/11 07:49:48;;;;;;;7.13;1.80;;;;;;;-142.75;100.00;75257.53;5007933;28;20017;-63
2023/07/11 07:52:13;;;;;;;7.10;1.75;;;;;;;-142.75;100.00;75243.75;5008596;28;20077;-63
2023/07/11 07:54:38;;;;;;;3.97;1.52;;;;;;;-142.75;100.00;75275.25;5008023;28;20510;-63
2023/07/11 07:57:04;;;;;;;3.53;1.63;;;;;;;-142.75;100.00;75263.44;5008086;28;20034;-63
2023/07/11 07:59:30;;;;;;;4.47;1.55;;;;;;;-142.75;100.00;75255.56;5007847;28;20033;-63
2023/07/11 08:01:56;;;;;;;5.57;1.45;;;;;;;-142.75;100.00;75235.88;5008351;28;20432;-63
2023/07/11 08:04:21;;;;;;;5.50;1.60;;;;;;;-142.75;100.00;75206.38;5006852;28;20026;-63
2023/07/11 08:06:47;;;;;;;4.72;1.58;;;;;;;-142.75;100.00;75180.78;5007956;28;20030;-62
2023/07/11 08:09:12;;;;;;;8.18;1.38;;;;;;;-142.75;100.00;75196.53;5007884;28;20030;-63
2023/07/11 08:11:37;;;;;;;3.58;1.30;;;;;;;-142.75;100.00;75165.03;5008189;28;20022;-63
2023/07/11 08:14:03;;;;;;;3.67;1.48;;;;;;;-142.75;100.00;75157.19;5007848;28;20509;-63
2023/07/11 08:16:29;;;;;;;3.08;1.30;;;;;;;-142.75;100.00;75165.03;5007793;28;20037;-63
2023/07/11 08:18:54;;;;;;;2.65;1.25;;;;;;;-142.75;100.00;75121.75;5007430;28;20464;-63
2023/07/11 08:21:20;;;;;;;3.35;1.77;;;;;;;-142.75;94.09;75137.50;5007201;28;20069;-63
2023/07/11 08:23:45;;;;;;;6.88;1.50;;;;;;;-142.75;94.92;75149.31;5007540;28;20022;-64
2023/07/11 08:26:11;;;;;;;5.28;1.42;;;;;;;-142.75;100.00;75137.50;5007855;28;20080;-63
2023/07/11 08:28:36;;;;;;;8.38;1.98;;;;;;;-142.75;100.00;75094.22;5007333;28;20030;-63
2023/07/11 08:31:03;;;;;;;4.82;1.67;;;;;;;-142.75;99.48;75078.47;5007639;28;20024;-63
2023/07/11 08:33:29;;;;;;;6.18;1.55;;;;;;;-142.75;94.87;75088.31;5007535;28;20116;-64
2023/07/11 08:35:56;;;;;;;4.13;1.52;;;;;;;-142.75;96.84;75064.69;5007442;28;20106;-63
2023/07/11 08:38:22;;;;;;;4.07;1.65;;;;;;;-142.75;92.34;75094.22;5007046;28;20092;-63
2023/07/11 08:40:47;;;;;;;3.90;1.60;;;;;;;-142.75;96.98;75141.44;5007378;28;20018;-63
2023/07/11 08:43:16;;;;;;;5.95;1.60;;;;;;;-142.75;97.13;75117.81;5007789;28;20029;-63
2023/07/11 08:45:50;;;;;;;4.53;1.45;;;;;;;-142.75;100.00;75076.50;5007538;28;20040;-63
2023/07/11 08:48:30;;;;;;;5.35;1.83;;;;;;;-142.75;96.77;75070.59;5007215;28;20481;-59
2023/07/11 08:51:04;;;;;;;4.70;1.15;;;;;;;-142.75;95.19;75062.72;5007163;28;20017;-63
2023/07/11 08:53:35;;;;;;;4.07;1.60;;;;;;;-142.75;91.81;75043.03;5007409;28;20424;-63
2023/07/11 08:56:13;;;;;;;6.38;1.55;;;;;;;-142.75;91.98;75015.50;5007169;28;20028;-63
2023/07/11 08:58:41;;;;;;;3.80;1.30;;;;;;;-142.75;90.25;75001.72;5006661;28;20099;-63
2023/07/11 09:01:29;;;;;;;6.75;1.50;;;;;;;-142.75;92.02;74976.16;5007062;28;20026;-63
2023/07/11 09:03:58;;;;;;;8.07;2.10;;;;;;;-142.75;88.21;74966.31;5007056;28;20025;-64
2023/07/11 09:06:30;;;;;;;5.35;1.92;;;;;;;-142.75;88.39;74946.63;5006955;28;20060;-63
2023/07/11 09:08:56;;;;;;;5.78;1.77;;;;;;;-142.75;87.00;74944.66;5006704;28;20028;-64
2023/07/11 09:11:34;;;;;;;5.45;1.42;;;;;;;-142.75;86.47;74928.91;5007048;28;20029;-63
2023/07/11 09:14:24;;;;;;;4.78;1.40;;;;;;;-142.75;83.93;74899.41;5007127;28;20036;-64
2023/07/11 09:17:01;;;;;;;3.35;1.50;;;;;;;-142.75;80.02;74936.78;5006926;28;20629;-63
2023/07/11 09:20:04;;;;;;;4.60;1.40;;;;;;;-142.75;80.21;74905.31;5006633;28;20100;-63
2023/07/11 09:22:30;;;;;;;3.22;1.38;;;;;;;-142.75;79.84;74936.78;5007137;28;20060;-63
2023/07/11 09:24:55;;;;;;;4.22;1.17;;;;;;;-142.75;84.22;74924.97;5006793;28;20064;-63
2023/07/11 09:27:36;;;;;;;4.53;1.63;;;;;;;-142.75;83.05;74891.53;5006842;28;20505;-64
2023/07/11 09:30:19;;;;;;;5.15;1.30;;;;;;;-142.75;79.60;74871.84;5006536;28;20113;-64
2023/07/11 09:32:45;;;;;;;3.35;1.30;;;;;;;-142.75;77.42;74907.28;5006899;28;20018;-65
2023/07/11 09:35:32;;;;;;;6.22;1.45;;;;;;;-142.75;80.45;74895.47;5010931;28;20041;-63
2023/07/11 09:38:05;;;;;;;6.47;1.52;;;;;;;-142.75;78.39;74885.63;5010804;28;20022;-64
2023/07/11 09:40:36;;;;;;;5.72;1.70;;;;;;;-142.75;78.95;74885.63;5010613;28;20028;-64
2023/07/11 09:43:03;;;;;;;4.43;1.30;;;;;;;-142.75;85.96;74901.38;5010834;28;20033;-64
2023/07/11 09:45:35;;;;;;;4.90;1.35;;;;;;;-142.75;79.20;74893.50;5010670;28;20018;-64
2023/07/11 09:48:06;;;;;;;3.72;1.40;;;;;;;-142.75;80.75;74942.69;5010461;28;20032;-63
2023/07/11 09:50:51;;;;;;;3.03;1.25;;;;;;;-142.75;79.23;74984.00;5010488;28;20022;-63
2023/07/11 09:53:26;;;;;;;5.85;1.38;;;;;;;-142.75;81.76;74997.78;5010533;28;20026;-63
2023/07/11 09:56:01;;;;;;;5.18;1.58;;;;;;;-142.75;84.94;75021.41;5010506;28;20026;-64
2023/07/11 09:58:29;;;;;;;4.03;1.40;;;;;;;-142.75;85.18;75015.50;5010206;28;20401;-64
2023/07/11 10:01:00;;;;;;;6.20;1.30;;;;;;;-142.75;87.12;74987.94;5010209;28;20025;-64
2023/07/11 10:03:27;;;;;;;5.00;1.30;;;;;;;-142.75;85.32;75005.66;5009158;28;20029;-63
2023/07/11 10:05:54;;;;;;;3.10;1.42;;;;;;;-142.75;85.91;75023.38;5010042;28;20021;-64
2023/07/11 10:08:21;;;;;;;5.63;1.45;;;;;;;-142.75;86.25;75003.69;5009905;28;20022;-63
2023/07/11 10:10:52;;;;;;;4.85;1.65;;;;;;;-142.75;88.73;74964.34;5010212;28;20017;-63
2023/07/11 10:13:18;;;;;;;4.57;1.20;;;;;;;-142.75;87.10;74924.97;5010023;28;20026;-64
2023/07/11 10:15:47;;;;;;;2.35;1.17;;;;;;;-142.75;86.84;74881.69;5010364;28;20056;-63
2023/07/11 10:18:22;;;;;;;6.40;1.83;;;;;;;-142.75;87.97;74858.09;5009840;28;20108;-63
2023/07/11 10:20:53;;;;;;;4.65;1.55;;;;;;;-142.75;83.56;74858.09;5009800;28;20053;-63
2023/07/11 10:23:22;;;;;;;4.47;1.50;;;;;;;-142.75;85.23;74887.59;5010002;28;20022;-63
2023/07/11 10:25:52;;;;;;;4.75;1.50;;;;;;;-142.75;87.84;74877.75;5009893;28;20060;-63
2023/07/11 10:28:32;;;;;;;6.95;1.67;;;;;;;-142.75;83.08;74913.19;5009909;28;20518;-63
2023/07/11 10:31:07;;;;;;;5.93;1.58;;;;;;;-142.75;84.75;74885.63;5009870;28;20515;-64
2023/07/11 10:33:45;;;;;;;6.07;1.48;;;;;;;-142.75;87.49;74854.16;5009931;28;20022;-63
2023/07/11 10:36:24;;;;;;;8.40;1.80;;;;;;;-142.75;85.01;74832.50;5009986;28;20033;-64
2023/07/11 10:39:01;;;;;;;4.63;1.63;;;;;;;-142.75;84.38;74755.78;5009353;28;20034;-64
2023/07/11 10:41:38;;;;;;;3.30;1.58;;;;;;;-142.75;81.09;74724.28;5009838;28;20046;-63
2023/07/11 10:44:11;;;;;;;4.82;1.70;;;;;;;-142.75;79.47;74747.91;5009238;28;20030;-64
2023/07/11 10:46:49;;;;;;;3.67;1.60;;;;;;;-142.75;81.42;74767.56;5009495;28;20034;-64
2023/07/11 10:49:43;;;;;;;4.70;1.50;;;;;;;-142.75;81.28;74803.00;5009431;28;20111;-65
2023/07/11 10:52:30;;;;;;;8.38;1.77;;;;;;;-142.75;82.94;74881.69;5009117;28;20049;-64
2023/07/11 10:55:09;;;;;;;4.70;1.83;;;;;;;-142.75;87.31;74854.16;5009358;28;20025;-64
2023/07/11 10:57:40;;;;;;;4.13;1.50;;;;;;;-142.75;86.29;74820.69;5009442;28;20017;-63
2023/07/11 11:00:29;;;;;;;3.67;1.80;;;;;;;-142.75;84.84;74822.66;5009026;28;20286;-64
2023/07/11 11:03:14;;;;;;;3.83;1.80;;;;;;;-142.75;84.20;74832.50;4988805;28;20059;-63
2023/07/11 11:06:04;;;;;;;4.50;1.80;;;;;;;-142.75;86.78;74777.41;5009472;28;20022;-64
2023/07/11 11:08:52;;;;;;;6.57;2.55;;;;;;;-142.75;81.54;74783.31;5009276;28;20046;-64
2023/07/11 11:11:37;;;;;;;4.40;1.73;;;;;;;-142.75;85.08;74781.34;4997922;28;20031;-64
2023/07/11 11:14:20;;;;;;;3.65;1.77;;;;;;;-142.75;83.39;74787.25;4989946;28;20026;-65
2023/07/11 11:17:05;;;;;;;5.53;1.63;;;;;;;-142.75;85.09;74765.59;4989683;28;20137;-65